Time;durP1;ratioP1;P1;durP2;ratioP2;P2;SDS_P1;SDS_P2;PMS_P1;PMS_P2;Temp;Humidity;BMP_temperature;BMP_pressure;BME280_temperature;BME280_humidity;BME280_pressure;Samples;Min_cycle;Max_cycle;Signal;HPM_P1;HPM_P2
2022/08/08 00:00:09;;;;;;;9.30;5.20;;;;;;;20.66;76.61;100929.87;1728778;82;21065;-46
2022/08/08 00:03:21;;;;;;;9.73;5.75;;;;;;;20.64;76.95;100934.56;1706613;82;21549;-46
2022/08/08 00:06:08;;;;;;;9.17;6.33;;;;;;;20.62;77.04;100931.20;1698404;82;21205;-46
2022/08/08 00:08:52;;;;;;;7.85;5.65;;;;;;;20.62;76.68;100937.89;1725384;81;21088;-46
2022/08/08 00:11:41;;;;;;;11.38;6.60;;;;;;;20.59;76.69;100935.91;1698463;82;21174;-46
2022/08/08 00:14:49;;;;;;;9.58;6.28;;;;;;;20.56;76.58;100926.89;1731080;82;21100;-45
2022/08/08 00:17:24;;;;;;;8.08;5.60;;;;;;;20.52;76.87;100940.77;1698615;83;21081;-46
2022/08/08 00:20:05;;;;;;;9.80;6.47;;;;;;;20.46;77.17;100937.45;1728660;81;21540;-47
2022/08/08 00:22:46;;;;;;;10.78;8.00;;;;;;;20.47;77.23;100933.78;1698644;83;21132;-47
2022/08/08 00:25:23;;;;;;;11.73;7.85;;;;;;;20.48;77.19;100928.27;1696514;83;21085;-46
2022/08/08 00:27:53;;;;;;;10.95;8.15;;;;;;;20.50;76.99;100935.59;1699111;82;21132;-46
2022/08/08 00:30:19;;;;;;;11.63;8.38;;;;;;;20.51;77.16;100937.76;1728754;82;21225;-46
2022/08/08 00:33:01;;;;;;;15.45;9.33;;;;;;;20.50;77.14;100934.27;1695157;82;21139;-46
2022/08/08 00:36:08;;;;;;;10.50;8.33;;;;;;;20.53;77.13;100931.77;1727066;81;20994;-46
2022/08/08 00:38:59;;;;;;;11.40;7.87;;;;;;;20.54;77.22;100924.91;1675739;83;21124;-47
2022/08/08 00:41:54;;;;;;;11.03;6.97;;;;;;;20.54;76.67;100931.59;1699768;82;21029;-46
2022/08/08 00:45:05;;;;;;;10.78;8.30;;;;;;;20.54;76.77;100929.39;1729262;81;21482;-46
2022/08/08 00:47:58;;;;;;;10.05;7.60;;;;;;;20.57;76.85;100929.88;1699923;83;21191;-46
2022/08/08 00:50:33;;;;;;;11.93;7.62;;;;;;;20.55;76.79;100928.40;1696046;82;21109;-46
2022/08/08 00:53:20;;;;;;;11.10;6.95;;;;;;;20.49;77.04;100923.23;1673373;83;21140;-46
2022/08/08 00:56:01;;;;;;;10.25;6.62;;;;;;;20.49;76.80;100917.06;1721671;81;21604;-46
2022/08/08 00:59:09;;;;;;;9.03;5.80;;;;;;;20.48;76.59;100918.91;1714603;83;21552;-46
2022/08/08 01:02:04;;;;;;;7.97;5.60;;;;;;;20.49;76.69;100919.73;1698942;82;21132;-46
2022/08/08 01:04:47;;;;;;;9.50;6.25;;;;;;;20.53;76.79;100916.55;1704957;81;21041;-46
2022/08/08 01:07:42;;;;;;;11.38;6.08;;;;;;;20.49;76.56;100923.23;1709258;83;21556;-46
2022/08/08 01:10:30;;;;;;;8.05;5.80;;;;;;;20.45;76.70;100923.27;1696987;82;21121;-46
2022/08/08 01:13:12;;;;;;;8.60;5.97;;;;;;;20.45;76.77;100919.77;1710514;81;21070;-46
2022/08/08 01:16:00;;;;;;;10.38;7.05;;;;;;;20.45;76.66;100927.27;1685654;82;22166;-46
2022/08/08 01:19:13;;;;;;;9.55;6.45;;;;;;;20.48;76.77;100924.25;1727938;81;21105;-46
2022/08/08 01:22:01;;;;;;;9.75;6.25;;;;;;;20.48;76.46;100921.58;1697260;83;21090;-46
2022/08/08 01:25:00;;;;;;;10.30;6.08;;;;;;;20.42;76.45;100918.27;1699466;83;21079;-46
2022/08/08 01:27:55;;;;;;;9.78;6.12;;;;;;;20.37;76.48;100920.11;1695033;82;21110;-46
2022/08/08 01:30:56;;;;;;;8.18;5.33;;;;;;;20.40;76.35;100922.95;1726345;81;23130;-45
2022/08/08 01:34:12;;;;;;;8.85;5.80;;;;;;;20.39;76.47;100923.47;1711554;82;21080;-46
2022/08/08 01:36:56;;;;;;;9.28;6.03;;;;;;;20.36;76.82;100919.80;1688160;83;22324;-47
2022/08/08 01:39:52;;;;;;;9.43;6.45;;;;;;;20.33;76.93;100916.65;1708321;83;21088;-46
2022/08/08 01:42:24;;;;;;;9.93;6.53;;;;;;;20.32;76.91;100918.98;1701156;82;21498;-46
2022/08/08 01:45:18;;;;;;;10.58;6.80;;;;;;;20.36;76.64;100920.31;1700665;82;21570;-46
2022/08/08 01:48:08;;;;;;;12.47;6.75;;;;;;;20.36;76.60;100918.98;1728909;81;21072;-46
2022/08/08 01:51:06;;;;;;;8.88;6.28;;;;;;;20.31;76.41;100921.31;1700006;82;21086;-45
2022/08/08 01:53:42;;;;;;;7.20;4.95;;;;;;;20.22;76.73;100919.18;1700932;82;21013;-46
2022/08/08 01:56:38;;;;;;;7.30;4.97;;;;;;;20.20;76.67;100923.36;1752896;80;21033;-46
2022/08/08 01:59:26;;;;;;;8.68;5.22;;;;;;;20.20;76.72;100916.68;1762879;80;21154;-46
2022/08/08 02:02:11;;;;;;;8.93;6.85;;;;;;;20.22;76.79;100928.53;1737645;80;22667;-47
2022/08/08 02:05:06;;;;;;;7.17;4.87;;;;;;;20.23;76.57;100929.70;1760898;79;21033;-45
2022/08/08 02:07:47;;;;;;;7.67;4.45;;;;;;;20.20;76.60;100929.22;1746126;81;21461;-47
2022/08/08 02:10:46;;;;;;;6.12;3.90;;;;;;;20.16;76.56;100928.73;1752787;79;20998;-47
2022/08/08 02:13:23;;;;;;;6.60;4.58;;;;;;;20.19;76.47;100928.39;1753972;81;21496;-47
2022/08/08 02:16:35;;;;;;;7.12;4.70;;;;;;;20.18;76.33;100925.37;1772392;78;20998;-46
2022/08/08 02:19:23;;;;;;;6.92;4.37;;;;;;;20.22;76.14;100928.05;1748232;81;21554;-46
2022/08/08 02:24:58;;;;;;;8.60;5.60;;;;;;;20.20;76.27;100930.55;1757532;80;21110;-46
2022/08/08 02:27:36;;;;;;;8.80;5.83;;;;;;;20.18;75.96;100928.05;1752322;81;21117;-46
2022/08/08 02:30:17;;;;;;;10.23;7.15;;;;;;;20.18;76.19;100925.89;1732939;80;20993;-46
2022/08/08 02:33:13;;;;;;;11.95;7.92;;;;;;;20.20;76.31;100930.04;1763745;80;21080;-46
2022/08/08 02:35:57;;;;;;;11.63;7.33;;;;;;;20.18;76.18;100930.72;1771128;80;21096;-45
2022/08/08 02:38:50;;;;;;;8.95;6.30;;;;;;;20.11;76.29;100932.42;1749360;81;21531;-46
2022/08/08 02:42:05;;;;;;;9.58;5.50;;;;;;;20.07;76.34;100931.59;1755397;80;21121;-45
2022/08/08 02:45:29;;;;;;;7.67;5.75;;;;;;;20.09;76.61;100938.45;1751392;81;21104;-46
2022/08/08 02:48:27;;;;;;;8.03;5.30;;;;;;;20.13;76.45;100933.59;1715714;81;21141;-46
2022/08/08 02:51:30;;;;;;;7.10;4.65;;;;;;;20.14;76.24;100936.09;1690553;84;21077;-47
2022/08/08 02:54:25;;;;;;;8.63;6.15;;;;;;;20.06;75.95;100940.12;1690478;84;21694;-46
2022/08/08 02:57:24;;;;;;;8.93;6.03;;;;;;;19.99;76.24;100943.98;1748026;80;21314;-47
2022/08/08 03:00:30;;;;;;;8.70;5.80;;;;;;;20.03;76.47;100950.63;1766954;80;21038;-46
2022/08/08 03:03:34;;;;;;;9.68;6.85;;;;;;;20.07;76.28;100955.13;1746021;80;21382;-46
2022/08/08 03:06:45;;;;;;;10.43;6.80;;;;;;;20.05;76.26;100947.80;1746002;80;21048;-46
2022/08/08 03:09:44;;;;;;;8.45;6.83;;;;;;;19.99;76.52;100942.64;1741788;80;21076;-47
2022/08/08 03:12:56;;;;;;;11.85;8.63;;;;;;;19.99;76.49;100945.31;1743334;80;21122;-46
2022/08/08 03:15:34;;;;;;;12.58;8.70;;;;;;;20.03;76.72;100952.48;1746603;80;21057;-46
2022/08/08 03:18:34;;;;;;;13.72;9.25;;;;;;;20.09;76.74;100953.62;1744985;80;21052;-46
2022/08/08 03:21:00;;;;;;;13.85;9.20;;;;;;;20.14;76.62;100961.47;1743794;80;21614;-46
2022/08/08 03:23:31;;;;;;;12.10;8.95;;;;;;;20.14;76.33;100961.95;1762858;80;21062;-46
2022/08/08 03:25:58;;;;;;;12.28;8.03;;;;;;;20.16;76.37;100963.47;1745719;80;21107;-46
2022/08/08 03:28:41;;;;;;;12.10;9.35;;;;;;;20.22;76.04;100962.78;1735519;81;21057;-46
2022/08/08 03:33:53;;;;;;;12.98;11.43;;;;;;;20.27;75.78;100963.58;1762151;80;21555;-46
2022/08/08 03:36:20;;;;;;;13.68;10.30;;;;;;;20.27;75.65;100966.77;1748431;80;21136;-46
2022/08/08 03:38:49;;;;;;;14.85;10.60;;;;;;;20.30;75.65;100967.77;1724698;81;21153;-46
2022/08/08 03:41:16;;;;;;;13.15;9.05;;;;;;;20.37;75.45;100968.73;1753522;80;21066;-46
2022/08/08 03:43:56;;;;;;;11.03;9.00;;;;;;;20.40;75.31;100971.06;1751977;81;21048;-45
2022/08/08 03:46:23;;;;;;;12.53;10.38;;;;;;;20.40;75.17;100969.22;1729135;81;21019;-46
2022/08/08 03:48:58;;;;;;;15.03;10.10;;;;;;;20.38;75.16;100973.08;1748683;81;21560;-46
2022/08/08 03:51:26;;;;;;;14.13;10.30;;;;;;;20.36;75.18;100972.43;1728608;81;21106;-46
2022/08/08 03:53:53;;;;;;;13.93;10.00;;;;;;;20.38;74.92;100976.58;1702439;82;21105;-45
2022/08/08 03:56:21;;;;;;;12.18;9.43;;;;;;;20.37;74.59;100977.58;1756441;80;21053;-46
2022/08/08 04:00:51;;;;;;;9.10;7.22;;;;;;;20.34;74.92;100974.42;1802630;78;22564;-46
2022/08/08 04:03:18;;;;;;;10.40;7.40;;;;;;;20.28;74.56;100981.30;1747553;80;21548;-47
2022/08/08 04:05:45;;;;;;;10.70;8.10;;;;;;;20.25;75.09;100976.29;1778616;79;21632;-46
2022/08/08 04:08:21;;;;;;;10.30;7.47;;;;;;;20.28;75.07;100973.80;1756196;80;20984;-47
2022/08/08 04:10:51;;;;;;;11.12;6.95;;;;;;;20.32;75.19;100981.78;1774030;79;21102;-46
2022/08/08 04:13:21;;;;;;;9.65;6.50;;;;;;;20.36;75.05;100984.45;1775114;79;21013;-46
2022/08/08 04:15:53;;;;;;;10.40;7.70;;;;;;;20.35;74.97;100988.12;1774358;78;21042;-46
2022/08/08 04:18:19;;;;;;;8.73;6.58;;;;;;;20.34;74.97;100990.45;1779649;78;21090;-46
2022/08/08 04:20:46;;;;;;;10.70;7.37;;;;;;;20.38;74.82;100986.45;1771108;80;21057;-46
2022/08/08 04:23:13;;;;;;;10.82;7.78;;;;;;;20.41;74.72;100990.94;1765140;79;21090;-46
2022/08/08 04:25:39;;;;;;;10.23;7.67;;;;;;;20.45;74.68;100982.58;1768922;80;21066;-46
2022/08/08 04:28:08;;;;;;;10.63;8.13;;;;;;;20.46;74.53;100989.09;1742792;81;21105;-45
2022/08/08 04:30:35;;;;;;;10.00;8.13;;;;;;;20.41;74.37;100992.79;1745793;81;21116;-46
2022/08/08 04:33:02;;;;;;;9.98;7.47;;;;;;;20.39;74.42;100988.09;1742586;80;21524;-48
2022/08/08 04:35:30;;;;;;;9.40;6.67;;;;;;;20.41;74.54;100984.77;1741634;80;21063;-46
2022/08/08 04:37:56;;;;;;;10.55;7.33;;;;;;;20.44;74.66;100988.92;1743478;80;21130;-47
2022/08/08 04:40:27;;;;;;;9.85;7.50;;;;;;;20.45;74.58;100988.75;1735921;80;21086;-46
2022/08/08 04:42:55;;;;;;;10.10;7.47;;;;;;;20.46;74.38;100992.25;1739596;80;21183;-46
2022/08/08 04:45:24;;;;;;;10.32;5.97;;;;;;;20.40;74.19;100995.12;1711339;82;21141;-46
2022/08/08 04:47:53;;;;;;;8.38;5.42;;;;;;;20.41;74.18;100992.79;1737244;80;21054;-46
2022/08/08 04:50:20;;;;;;;7.75;4.83;;;;;;;20.45;74.12;100999.44;1718934;83;21054;-47
2022/08/08 04:52:47;;;;;;;6.95;4.50;;;;;;;20.52;74.08;100996.91;1708958;82;21569;-46
2022/08/08 04:55:15;;;;;;;7.50;4.55;;;;;;;20.54;73.58;101001.09;1738006;82;21081;-46
2022/08/08 04:57:42;;;;;;;7.40;4.90;;;;;;;20.53;73.91;101002.09;1736625;82;21000;-47
2022/08/08 05:00:11;;;;;;;8.43;5.08;;;;;;;20.56;74.07;101001.75;1727710;82;21527;-46
2022/08/08 05:02:38;;;;;;;10.48;6.47;;;;;;;20.68;73.91;100997.36;1760201;80;21059;-46
2022/08/08 05:05:06;;;;;;;9.08;6.70;;;;;;;20.77;73.34;100996.33;1773500;80;21007;-46
2022/08/08 05:07:34;;;;;;;9.20;7.05;;;;;;;20.76;72.91;100987.48;1769089;80;21844;-46
2022/08/08 05:10:01;;;;;;;12.65;6.87;;;;;;;20.75;73.26;100997.02;1773268;79;21517;-46
2022/08/08 05:12:29;;;;;;;10.30;6.05;;;;;;;20.77;73.52;100994.48;1769979;79;21083;-46
2022/08/08 05:14:57;;;;;;;11.38;8.25;;;;;;;20.84;73.59;100993.79;1801286;79;21060;-46
2022/08/08 05:17:24;;;;;;;9.95;7.80;;;;;;;20.89;72.79;101001.61;1754251;80;21101;-46
2022/08/08 05:19:50;;;;;;;11.65;8.25;;;;;;;20.91;72.79;101003.63;1801432;79;21046;-47
2022/08/08 05:22:19;;;;;;;9.88;7.25;;;;;;;20.92;72.69;101004.45;1778484;80;20995;-46
2022/08/08 05:24:47;;;;;;;9.55;6.58;;;;;;;20.91;72.77;101012.98;1766128;79;21679;-46
2022/08/08 05:27:14;;;;;;;9.38;6.15;;;;;;;20.88;72.66;101013.33;1773715;80;21560;-47
2022/08/08 05:29:41;;;;;;;9.50;6.33;;;;;;;20.88;72.68;101017.34;1776324;80;21691;-46
2022/08/08 05:32:08;;;;;;;9.20;6.70;;;;;;;20.91;72.56;101017.00;1775752;80;21986;-47
2022/08/08 05:34:47;;;;;;;11.53;8.18;;;;;;;20.92;72.31;101015.15;1760966;79;21126;-46
2022/08/08 05:37:26;;;;;;;10.82;6.37;;;;;;;20.89;72.75;101020.33;1765771;80;21059;-48
2022/08/08 05:39:54;;;;;;;9.28;6.60;;;;;;;20.86;72.98;101019.34;1766646;79;21076;-59
2022/08/08 05:42:30;;;;;;;9.13;6.58;;;;;;;20.90;73.00;101024.69;1772280;79;21686;-59
2022/08/08 05:44:56;;;;;;;9.50;6.53;;;;;;;20.95;72.58;101026.33;1759577;79;21064;-59
2022/08/08 05:47:23;;;;;;;10.45;6.45;;;;;;;21.01;72.54;101019.94;1764388;80;21077;-59
2022/08/08 05:49:49;;;;;;;8.13;5.80;;;;;;;21.04;72.59;101024.95;1760478;79;21061;-59
2022/08/08 05:52:16;;;;;;;8.63;5.85;;;;;;;21.07;72.54;101024.60;1761330;80;21068;-59
2022/08/08 05:54:43;;;;;;;8.80;6.50;;;;;;;21.05;72.35;101020.77;1764904;79;21061;-59
2022/08/08 05:57:16;;;;;;;9.75;6.62;;;;;;;21.06;72.32;101017.57;1766035;79;21803;-59
2022/08/08 05:59:51;;;;;;;10.18;8.00;;;;;;;21.11;72.24;101017.88;1760707;79;21098;-59
2022/08/08 06:05:10;;;;;;;10.13;7.92;;;;;;;21.22;71.84;101026.84;1693089;82;21130;-59
2022/08/08 06:07:41;;;;;;;9.78;7.00;;;;;;;21.24;72.22;101026.16;1762529;80;21134;-59
2022/08/08 06:10:10;;;;;;;8.85;6.28;;;;;;;21.27;71.59;101031.16;1750857;79;21503;-59
2022/08/08 06:12:38;;;;;;;8.33;6.10;;;;;;;21.28;71.24;101031.50;1755560;79;21526;-59
2022/08/08 06:15:07;;;;;;;7.67;5.80;;;;;;;21.30;71.21;101034.82;1743918;80;21538;-60
2022/08/08 06:17:39;;;;;;;8.03;5.55;;;;;;;21.28;71.33;101028.82;1770997;79;21062;-60
2022/08/08 06:20:09;;;;;;;8.28;5.40;;;;;;;21.30;71.47;101033.48;1765104;79;20992;-61
2022/08/08 06:22:36;;;;;;;7.60;5.03;;;;;;;21.34;71.44;101039.31;1718454;82;21279;-59
2022/08/08 06:25:07;;;;;;;6.50;4.45;;;;;;;21.42;71.11;101051.82;1773474;79;21477;-59
2022/08/08 06:27:46;;;;;;;7.17;5.50;;;;;;;21.46;70.77;101049.10;1766294;79;21412;-59
2022/08/08 06:30:13;;;;;;;8.35;5.47;;;;;;;21.53;70.75;101047.40;1747145;79;21051;-58
2022/08/08 06:32:51;;;;;;;7.70;5.50;;;;;;;21.62;71.08;101046.34;1771761;79;21007;-59
2022/08/08 06:35:19;;;;;;;6.78;4.97;;;;;;;21.71;70.41;101047.92;1738057;80;21177;-59
2022/08/08 06:37:53;;;;;;;7.17;4.33;;;;;;;21.79;70.42;101044.36;1749541;80;21486;-59
2022/08/08 06:40:22;;;;;;;6.83;4.58;;;;;;;21.88;69.04;101042.44;1757167;80;21078;-59
2022/08/08 06:43:04;;;;;;;9.13;6.53;;;;;;;21.91;68.65;101044.75;1759589;79;21008;-59
2022/08/08 06:45:35;;;;;;;9.50;6.40;;;;;;;21.92;69.41;101041.05;1755156;80;21083;-59
2022/08/08 06:48:03;;;;;;;10.10;6.70;;;;;;;21.98;69.15;101040.84;1764964;79;21252;-59
2022/08/08 06:50:35;;;;;;;9.23;5.80;;;;;;;22.10;69.14;101043.91;1734450;80;21085;-59
2022/08/08 06:53:01;;;;;;;7.65;5.62;;;;;;;22.23;68.79;101040.92;1766512;79;20990;-59
2022/08/08 06:55:29;;;;;;;8.05;5.67;;;;;;;22.37;68.10;101045.98;1759011;80;21094;-59
2022/08/08 06:57:56;;;;;;;5.67;4.08;;;;;;;22.44;67.62;101051.45;1752768;80;21061;-60
2022/08/08 07:00:23;;;;;;;6.85;4.75;;;;;;;22.45;67.75;101055.28;1762741;80;21211;-60
2022/08/08 07:02:52;;;;;;;8.98;5.58;;;;;;;22.46;67.15;101060.16;1761976;80;21115;-60
2022/08/08 07:05:22;;;;;;;7.08;5.05;;;;;;;22.42;66.97;101059.67;1769833;80;21045;-60
2022/08/08 07:07:55;;;;;;;6.87;4.72;;;;;;;22.43;66.96;101056.50;1767395;80;21064;-58
2022/08/08 07:10:23;;;;;;;7.12;5.12;;;;;;;22.40;66.80;101059.03;1747666;79;21528;-58
2022/08/08 07:12:54;;;;;;;6.95;4.40;;;;;;;22.29;67.03;101059.48;1766188;80;21125;-58
2022/08/08 07:15:52;;;;;;;7.65;5.17;;;;;;;22.21;67.38;101059.55;1745239;80;21056;-58
2022/08/08 07:18:40;;;;;;;6.08;4.12;;;;;;;22.15;67.45;101054.40;1774317;79;21102;-58
2022/08/08 07:21:08;;;;;;;7.87;4.70;;;;;;;22.12;68.04;101059.30;1772448;79;21046;-57
2022/08/08 07:24:02;;;;;;;7.83;5.47;;;;;;;22.21;68.00;101057.70;1772396;79;21082;-57
2022/08/08 07:26:32;;;;;;;6.37;4.60;;;;;;;22.33;67.68;101061.31;1777125;79;21887;-57
2022/08/08 07:29:01;;;;;;;7.37;4.75;;;;;;;22.51;67.65;101058.24;1776005;79;21054;-58
2022/08/08 07:31:28;;;;;;;8.58;5.20;;;;;;;22.60;66.87;101057.14;1775008;79;21465;-58
2022/08/08 07:33:55;;;;;;;7.03;4.53;;;;;;;22.66;66.23;101048.86;1771700;79;21545;-58
2022/08/08 07:36:22;;;;;;;8.83;4.92;;;;;;;22.66;66.26;101055.04;1779523;79;21105;-58
2022/08/08 07:38:50;;;;;;;5.72;4.03;;;;;;;22.68;66.04;101058.39;1774883;79;21133;-57
2022/08/08 07:41:18;;;;;;;6.55;4.28;;;;;;;22.76;66.48;101056.10;1771483;80;21062;-57
2022/08/08 07:43:45;;;;;;;6.90;4.67;;;;;;;22.87;66.07;101052.12;1766779;79;21035;-57
2022/08/08 07:46:12;;;;;;;6.62;4.85;;;;;;;22.91;65.55;101058.77;1765743;80;21038;-58
2022/08/08 07:48:39;;;;;;;6.03;4.03;;;;;;;22.91;65.42;101048.86;1768938;80;21060;-58
2022/08/08 07:51:08;;;;;;;6.78;4.35;;;;;;;23.00;65.74;101056.31;1772772;80;21130;-57
2022/08/08 07:53:54;;;;;;;7.03;4.42;;;;;;;23.07;65.38;101058.59;1762927;80;21065;-58
2022/08/08 07:56:21;;;;;;;6.72;4.62;;;;;;;23.17;64.94;101052.92;1772048;79;21539;-58
2022/08/08 07:58:47;;;;;;;9.88;5.22;;;;;;;23.22;64.46;101057.21;1768885;80;21667;-58
2022/08/08 08:01:16;;;;;;;7.22;5.35;;;;;;;23.23;64.59;101059.38;1761829;79;21075;-58
2022/08/08 08:03:56;;;;;;;6.95;4.70;;;;;;;23.24;64.31;101058.37;1757942;79;21236;-58
2022/08/08 08:06:25;;;;;;;7.15;4.90;;;;;;;23.27;64.63;101055.30;1748333;80;21068;-58
2022/08/08 08:09:18;;;;;;;10.30;5.75;;;;;;;23.33;64.99;101056.72;1762381;79;21514;-59
2022/08/08 08:11:48;;;;;;;8.58;5.97;;;;;;;23.43;64.44;101059.06;1726335;82;21707;-59
2022/08/08 08:14:18;;;;;;;9.48;6.78;;;;;;;23.50;64.02;101071.22;1704073;83;21122;-59
2022/08/08 08:16:46;;;;;;;7.55;6.17;;;;;;;23.54;63.69;101070.66;1709931;82;21770;-59
2022/08/08 08:19:13;;;;;;;6.95;5.30;;;;;;;23.58;63.28;101077.81;1700184;83;21074;-58
2022/08/08 08:21:47;;;;;;;8.15;6.00;;;;;;;23.59;63.30;101076.80;1695443;83;21063;-58
2022/08/08 08:24:18;;;;;;;7.90;5.67;;;;;;;23.60;62.97;101068.22;1695797;83;21027;-59
2022/08/08 08:26:46;;;;;;;7.15;4.92;;;;;;;23.60;62.85;101073.59;1702490;83;21058;-58
2022/08/08 08:29:13;;;;;;;7.03;4.97;;;;;;;23.60;62.99;101072.25;1702858;84;22038;-59
2022/08/08 08:31:40;;;;;;;8.20;4.97;;;;;;;23.65;63.08;101073.84;1675805;83;21563;-59
2022/08/08 08:34:07;;;;;;;7.03;5.08;;;;;;;23.72;63.19;101072.89;1723462;81;21546;-58
2022/08/08 08:36:36;;;;;;;8.63;5.53;;;;;;;23.80;63.24;101073.78;1758651;79;21060;-58
2022/08/08 08:39:03;;;;;;;6.50;4.78;;;;;;;23.81;62.38;101072.24;1754184;80;21054;-59
2022/08/08 08:41:34;;;;;;;6.67;5.10;;;;;;;23.79;62.28;101066.23;1755483;79;21133;-58
2022/08/08 08:44:01;;;;;;;7.17;5.35;;;;;;;23.80;62.38;101070.57;1762867;80;21011;-58
2022/08/08 08:46:28;;;;;;;7.33;4.85;;;;;;;23.83;62.38;101072.91;1756431;80;21059;-59
2022/08/08 08:48:55;;;;;;;7.85;5.12;;;;;;;23.92;61.92;101070.91;1766433;80;21069;-58
2022/08/08 08:51:21;;;;;;;8.68;4.75;;;;;;;24.00;61.27;101073.98;1765457;79;21079;-58
2022/08/08 08:53:53;;;;;;;6.42;4.85;;;;;;;24.03;61.44;101068.22;1758100;79;21099;-58
2022/08/08 08:56:28;;;;;;;7.78;5.55;;;;;;;24.06;61.03;101074.55;1757012;80;21554;-58
2022/08/08 08:58:54;;;;;;;7.58;5.20;;;;;;;24.06;60.90;101074.55;1755069;79;21064;-58
2022/08/08 09:01:26;;;;;;;7.62;5.53;;;;;;;24.02;60.85;101075.95;1757820;80;21027;-58
2022/08/08 09:03:59;;;;;;;8.43;5.65;;;;;;;23.97;61.20;101078.39;1746863;80;21103;-59
2022/08/08 09:06:30;;;;;;;7.62;5.42;;;;;;;23.89;61.40;101073.48;1757603;80;21183;-59
2022/08/08 09:09:08;;;;;;;9.28;4.47;;;;;;;23.92;61.89;101068.22;1762649;79;21556;-58
2022/08/08 09:11:35;;;;;;;7.53;5.25;;;;;;;24.10;61.98;101071.78;1755942;79;21086;-58
2022/08/08 09:14:02;;;;;;;7.17;5.12;;;;;;;24.21;60.97;101067.70;1756661;79;21025;-59
2022/08/08 09:16:31;;;;;;;6.75;5.00;;;;;;;24.23;61.08;101063.81;1757472;80;21528;-58
2022/08/08 09:18:59;;;;;;;7.25;5.65;;;;;;;24.34;61.15;101069.66;1753421;80;21702;-58
2022/08/08 09:21:26;;;;;;;8.80;5.80;;;;;;;24.45;61.28;101065.09;1729276;80;21389;-59
2022/08/08 09:23:54;;;;;;;7.45;5.80;;;;;;;24.60;60.53;101067.16;1756438;79;20984;-58
2022/08/08 09:26:29;;;;;;;7.45;5.78;;;;;;;24.72;59.74;101067.43;1768676;79;21043;-58
2022/08/08 09:28:56;;;;;;;8.00;6.25;;;;;;;24.73;59.77;101073.63;1759340;80;21019;-58
2022/08/08 09:31:56;;;;;;;7.35;5.47;;;;;;;24.72;59.77;101067.95;1764817;80;21145;-59
2022/08/08 09:34:24;;;;;;;8.18;5.30;;;;;;;24.77;59.34;101066.84;1761697;80;21129;-58
2022/08/08 09:36:57;;;;;;;8.13;5.75;;;;;;;24.85;59.36;101068.02;1765281;79;21118;-59
2022/08/08 09:39:24;;;;;;;10.25;5.80;;;;;;;24.93;59.46;101069.19;1756946;80;21008;-58
2022/08/08 09:42:02;;;;;;;6.72;5.03;;;;;;;25.02;59.36;101067.97;1761163;79;21114;-58
2022/08/08 09:45:03;;;;;;;9.98;5.85;;;;;;;25.04;58.93;101065.90;1764935;79;22169;-58
2022/08/08 09:47:38;;;;;;;7.17;5.33;;;;;;;25.07;58.80;101067.90;1771574;79;21043;-59
2022/08/08 09:50:10;;;;;;;8.40;5.83;;;;;;;24.99;58.90;101069.71;1751962;80;21110;-59
2022/08/08 09:52:41;;;;;;;7.75;6.53;;;;;;;24.94;59.32;101072.18;1753445;80;21518;-59
2022/08/08 09:55:08;;;;;;;7.50;5.97;;;;;;;24.91;59.44;101061.81;1755134;80;21078;-59
2022/08/08 09:57:38;;;;;;;10.25;7.03;;;;;;;24.89;59.96;101066.57;1759564;79;21128;-59
2022/08/08 10:00:09;;;;;;;9.35;6.30;;;;;;;24.82;59.49;101067.89;1755785;79;21499;-58
2022/08/08 10:02:44;;;;;;;11.35;6.40;;;;;;;24.80;59.78;101074.52;1762719;79;21051;-58
2022/08/08 10:05:19;;;;;;;8.58;6.60;;;;;;;24.80;59.71;101074.52;1760278;79;21082;-58
2022/08/08 10:07:55;;;;;;;8.38;6.28;;;;;;;24.75;59.96;101072.95;1740161;79;21071;-58
2022/08/08 10:10:40;;;;;;;9.40;7.62;;;;;;;24.77;60.27;101082.46;1765394;80;21292;-58
2022/08/08 10:13:20;;;;;;;8.47;6.73;;;;;;;24.77;59.50;101070.35;1761151;79;21046;-58
2022/08/08 10:15:52;;;;;;;11.83;7.05;;;;;;;24.70;59.53;101073.53;1761651;79;21059;-58
2022/08/08 10:18:33;;;;;;;8.03;6.28;;;;;;;24.65;59.75;101071.95;1794588;79;21082;-58
2022/08/08 10:21:06;;;;;;;7.97;5.70;;;;;;;24.68;60.66;101070.22;1765438;80;21122;-58
2022/08/08 10:23:46;;;;;;;7.60;5.47;;;;;;;24.83;60.48;101064.17;1765209;80;21709;-58
2022/08/08 10:26:38;;;;;;;7.00;5.67;;;;;;;25.01;59.60;101066.82;1769217;80;21043;-58
2022/08/08 10:29:10;;;;;;;7.75;4.65;;;;;;;25.02;59.43;101061.23;1764087;79;21538;-58
2022/08/08 10:34:25;;;;;;;6.83;5.28;;;;;;;25.03;59.73;101058.88;1768668;79;21007;-58
2022/08/08 10:36:52;;;;;;;8.03;6.12;;;;;;;25.09;59.42;101057.22;1772245;79;21115;-58
2022/08/08 10:39:23;;;;;;;7.33;5.45;;;;;;;25.07;59.10;101058.47;1705460;83;21075;-58
2022/08/08 10:42:02;;;;;;;7.97;5.22;;;;;;;25.06;58.91;101058.14;1770189;79;21590;-58
2022/08/08 10:44:40;;;;;;;7.17;5.42;;;;;;;25.11;59.09;101049.77;1765120;79;21043;-58
2022/08/08 10:47:17;;;;;;;9.18;5.83;;;;;;;25.16;59.38;101047.29;1772600;79;21046;-58
2022/08/08 10:49:56;;;;;;;9.33;6.20;;;;;;;25.22;58.38;101048.36;1713109;80;21099;-58
2022/08/08 10:52:37;;;;;;;8.40;6.83;;;;;;;25.24;58.78;101044.94;1785520;79;21106;-58
2022/08/08 10:55:16;;;;;;;8.33;6.12;;;;;;;25.32;59.24;101040.75;1770567;79;21094;-58
2022/08/08 10:57:46;;;;;;;6.97;5.30;;;;;;;25.39;58.92;101040.76;1772519;79;21059;-58
2022/08/08 11:00:21;;;;;;;7.95;5.85;;;;;;;25.42;58.83;101036.31;1755054;80;21089;-59
2022/08/08 11:02:49;;;;;;;9.50;6.85;;;;;;;25.47;57.83;101035.17;1768030;79;21822;-59
2022/08/08 11:05:15;;;;;;;9.08;6.42;;;;;;;25.45;57.97;101039.91;1766634;79;21035;-58
2022/08/08 11:07:49;;;;;;;8.20;6.22;;;;;;;25.42;57.54;101036.80;1779111;79;21042;-59
2022/08/08 11:10:18;;;;;;;10.32;6.65;;;;;;;25.31;57.35;101039.07;1775733;79;21047;-58
2022/08/08 11:13:02;;;;;;;9.15;6.33;;;;;;;25.21;57.94;101035.39;1752571;79;21019;-59
2022/08/08 11:15:29;;;;;;;7.72;6.35;;;;;;;25.14;58.45;101034.55;1757630;79;22180;-59
2022/08/08 11:17:56;;;;;;;9.48;6.30;;;;;;;25.14;58.99;101029.16;1771284;79;21047;-59
2022/08/08 11:20:26;;;;;;;8.53;5.95;;;;;;;25.11;58.50;101032.78;1756330;80;20983;-59
2022/08/08 11:22:58;;;;;;;7.83;6.35;;;;;;;25.05;59.38;101034.44;1766646;80;21549;-58
2022/08/08 11:25:30;;;;;;;8.15;6.25;;;;;;;24.97;59.39;101030.06;1769026;79;21082;-58
2022/08/08 11:27:59;;;;;;;9.45;7.17;;;;;;;24.94;59.61;101027.77;1763314;79;21144;-62
2022/08/08 11:30:30;;;;;;;7.50;6.08;;;;;;;24.99;59.37;101035.24;1774020;79;21459;-58
2022/08/08 11:33:02;;;;;;;8.88;6.10;;;;;;;25.03;59.64;101035.98;1772151;79;21055;-58
2022/08/08 11:35:29;;;;;;;8.70;6.90;;;;;;;25.09;59.69;101038.90;1759385;80;21117;-58
2022/08/08 11:37:57;;;;;;;9.83;6.50;;;;;;;25.20;58.95;101032.90;1734233;80;21126;-59
2022/08/08 11:40:24;;;;;;;8.80;6.65;;;;;;;25.32;58.44;101030.50;1766603;79;21139;-59
2022/08/08 11:42:50;;;;;;;7.15;5.60;;;;;;;25.43;58.30;101037.95;1766117;80;21101;-59
2022/08/08 11:45:17;;;;;;;8.00;5.83;;;;;;;25.48;58.08;101033.30;1775532;80;21093;-59
2022/08/08 11:47:44;;;;;;;7.80;6.12;;;;;;;25.48;58.34;101034.65;1746290;80;21053;-58
2022/08/08 11:50:18;;;;;;;7.22;6.05;;;;;;;25.53;58.51;101029.47;1762215;79;21058;-59
2022/08/08 11:52:43;;;;;;;8.35;6.42;;;;;;;25.63;58.25;101025.84;1775888;79;21243;-58
2022/08/08 11:55:20;;;;;;;9.05;5.83;;;;;;;25.69;57.39;101025.55;1768939;80;21106;-59
2022/08/08 11:57:47;;;;;;;7.75;5.40;;;;;;;25.74;57.55;101027.11;1777588;79;21079;-58
2022/08/08 12:00:17;;;;;;;10.13;6.00;;;;;;;25.81;57.68;101027.11;1758963;79;21153;-59
2022/08/08 12:02:53;;;;;;;9.43;6.37;;;;;;;25.88;57.70;101026.05;1751599;79;20991;-58
2022/08/08 12:05:18;;;;;;;8.67;6.50;;;;;;;25.90;56.59;101019.09;1755837;79;21142;-58
2022/08/08 12:07:53;;;;;;;9.33;6.92;;;;;;;25.88;56.18;101023.34;1758394;79;21076;-58
2022/08/08 12:10:24;;;;;;;9.73;6.25;;;;;;;25.88;56.81;101021.19;1755401;79;21011;-58
2022/08/08 12:13:03;;;;;;;8.35;6.12;;;;;;;25.88;56.63;101021.19;1758060;80;21026;-59
2022/08/08 12:15:35;;;;;;;7.75;5.85;;;;;;;25.84;56.57;101023.97;1758460;79;21683;-58